Latest Weather Observations for Emerald

IDQ60801

Issued at 10:35 pm EST Friday 31 October 2014 (issued every 30 minutes, with the page automatically refreshed every 10 minutes)

About weather observations | Map of weather stations | Latest weather observations for QLD | Other Formats
Station Details ID: 035264 Name: EMERALD AIRPORT Lat: -23.57 Lon: 148.18 Height: 189.4 m
Data from the previous 72 hours. | See also: Recent months at Emerald
Date/Time
EST
Temp
°C
App
Temp
°C
Dew
Point
Rel
Hum
%
Delta-T
°C
Wind Press
QNH
hPa
Press
MSL
hPa
Rain
since 9 am
mm
Dir
 
Spd
km/h
Gust
km/h
Spd
kts
Gust
kts
31/10:30pm 24.0 20.9 16.5 63 4.6 NE 28 41 15 22 1013.8 - 0.0
31/10:00pm 24.8 21.2 16.2 58 5.3 NE 30 41 16 22 1013.8 - 0.0
31/09:30pm 25.5 23.7 16.1 56 5.8 NE 20 28 11 15 1013.8 - 0.0
31/09:00pm 26.3 24.1 16.0 53 6.4 NE 22 33 12 18 1013.3 1012.4 0.0
31/08:30pm 27.1 24.1 15.8 50 7.0 NE 26 35 14 19 1012.8 - 0.0
31/08:00pm 28.0 24.8 15.3 46 7.8 NE 26 33 14 18 1012.3 - 0.0
31/07:30pm 28.9 25.7 14.3 40 8.9 NE 24 35 13 19 1011.9 - 0.0
31/07:00pm 30.1 26.5 13.0 35 10.2 NE 24 35 13 19 1011.4 - 0.0
31/06:30pm 31.5 27.8 12.8 32 11.2 NE 24 39 13 21 1011.2 - 0.0
31/06:00pm 32.7 29.7 11.8 28 12.4 NE 19 28 10 15 1010.8 1009.8 0.0
31/05:30pm 33.6 30.4 11.4 25 13.1 NNE 19 28 10 15 1010.5 - 0.0
31/05:00pm 34.0 30.4 10.6 24 13.7 NNE 20 30 11 16 1010.3 - 0.0
31/04:30pm 34.6 31.9 11.7 25 13.7 N 17 28 9 15 1010.3 - 0.0
31/04:00pm 34.3 30.9 12.6 27 13.1 NE 22 28 12 15 1010.4 - 0.0
31/03:30pm 34.5 30.8 11.6 25 13.6 NNE 22 33 12 18 1010.5 - 0.0
31/03:00pm 34.1 30.9 11.9 26 13.3 NNE 20 33 11 18 1010.8 1009.8 0.0
31/02:30pm 33.9 30.3 11.7 26 13.2 NNE 22 32 12 17 1011.1 - 0.0
31/02:00pm 33.7 31.3 13.7 30 12.3 NNE 19 30 10 16 1011.4 - 0.0
31/01:30pm 32.7 29.7 13.8 31 11.6 NNE 22 33 12 18 1012.0 - 0.0
31/01:00pm 33.2 31.0 14.8 33 11.4 N 20 30 11 16 1012.5 - 0.0
31/12:30pm 31.0 29.1 14.2 36 10.3 ENE 17 28 9 15 1013.2 - 0.0
31/12:00pm 30.9 29.6 14.9 37 9.9 NNE 15 26 8 14 1013.9 1012.9 0.0
31/11:30am 30.2 29.8 16.2 42 8.8 N 13 22 7 12 1014.4 - 0.0
31/11:00am 28.7 26.9 15.6 45 8.1 N 19 24 10 13 1015.1 - 0.0
31/10:30am 28.3 26.9 15.6 46 7.8 NNE 17 28 9 15 1015.4 - 0.0
31/10:00am 27.5 26.6 16.8 52 6.7 NNE 17 26 9 14 1015.8 - 0.0
31/09:30am 25.8 24.2 16.4 56 5.8 NNE 20 28 11 15 1016.0 - 0.0
31/09:00am 25.2 25.1 17.9 64 4.6 NNE 15 22 8 12 1016.3 1015.4 0.0
31/08:30am 24.1 24.2 18.3 70 3.7 NE 15 20 8 11 1016.5 - 0.0
31/08:00am 23.0 23.5 18.3 75 3.0 NE 13 17 7 9 1016.3 - 0.0
31/07:30am 22.0 23.2 19.0 83 1.9 NE 11 13 6 7 1015.9 - 0.0
31/07:00am 20.9 22.5 18.3 85 1.6 NE 7 11 4 6 1015.6 - 0.0
31/06:30am 20.9 22.1 18.3 85 1.6 N 9 11 5 6 1015.5 - 0.0
31/06:00am 21.0 22.3 18.4 85 1.6 N 9 13 5 7 1015.1 1014.1 0.0
31/05:30am 21.0 22.4 18.6 86 1.5 N 9 11 5 6 1014.5 - 0.0
31/05:00am 21.3 22.6 18.5 84 1.8 N 9 13 5 7 1014.3 - 0.0
31/04:30am 21.6 22.2 18.6 83 1.9 NNE 13 17 7 9 1014.1 - 0.0
31/04:00am 21.8 21.6 18.6 82 2.0 NNE 17 22 9 12 1013.9 - 0.0
31/03:30am 21.9 21.2 18.3 80 2.3 ENE 19 28 10 15 1013.8 - 0.0
31/03:00am 22.2 21.3 18.2 78 2.5 E 20 26 11 14 1014.1 1013.1 0.0
31/02:30am 22.7 21.2 17.8 74 3.1 SE 22 28 12 15 1015.0 - 0.0
31/02:00am 22.7 20.4 17.6 73 3.2 ESE 26 33 14 18 1015.2 - 0.0
31/01:30am 22.7 21.9 18.0 75 3.0 SE 19 24 10 13 1015.5 - 0.0
31/01:00am 22.6 21.6 17.9 75 2.9 E 20 24 11 13 1015.0 - 0.0
31/12:30am 22.8 22.3 17.7 73 3.2 ENE 17 26 9 14 1014.3 - 0.0
31/12:00am 23.1 21.4 17.1 69 3.7 NE 22 32 12 17 1014.0 1013.0 0.0
 
Date/Time
EST
Temp
°C
App
Temp
°C
Dew
Point
Rel
Hum
%
Delta-T
°C
Wind Press
QNH
hPa
Press
MSL
hPa
Rain
since 9 am
mm
Dir
 
Spd
km/h
Gust
km/h
Spd
kts
Gust
kts
30/11:30pm 23.5 21.7 17.0 67 4.0 NE 22 33 12 18 1013.5 - 0.0
30/11:00pm 24.0 22.7 17.3 66 4.2 ENE 20 28 11 15 1014.3 - 0.0
30/10:30pm 24.7 23.3 16.9 62 4.9 NNE 20 28 11 15 1013.9 - 0.0
30/10:00pm 25.5 23.9 16.4 57 5.6 NNE 20 30 11 16 1013.8 - 0.0
30/09:30pm 26.3 24.0 15.7 52 6.5 NE 22 32 12 17 1013.4 - 0.0
30/09:00pm 27.3 24.1 15.3 48 7.4 NNE 26 37 14 20 1013.0 1012.1 0.0
30/08:30pm 28.6 26.0 15.8 45 7.9 NNE 24 30 13 16 1012.3 - 0.0
30/08:00pm 29.3 26.7 15.8 44 8.4 NE 24 32 13 17 1011.7 - 0.0
30/07:30pm 30.3 26.1 15.6 41 9.1 NE 32 44 17 24 1011.3 - 0.0
30/07:00pm 30.8 27.9 15.2 38 9.7 NE 24 33 13 18 1011.0 - 0.0
30/06:30pm 32.0 28.1 15.5 37 10.3 NE 30 41 16 22 1010.5 - 0.0
30/06:22pm 32.3 28.9 15.7 36 10.4 NE 28 35 15 19 1010.3 - 0.0
30/06:00pm 33.9 32.9 11.1 25 13.5 ENE 7 7 4 4 1009.8 1008.8 0.0
30/05:30pm 35.1 33.7 9.5 21 14.8 E 7 11 4 6 1009.5 - 0.0
30/05:00pm 35.6 33.9 8.4 19 15.5 NE 7 11 4 6 1009.4 - 0.0
30/04:30pm 36.1 34.7 8.8 19 15.7 NE 6 9 3 5 1009.4 - 0.0
30/04:00pm 36.3 34.4 7.4 17 16.3 N 7 13 4 7 1009.5 - 0.0
30/03:30pm 36.0 34.9 7.1 17 16.2 NNW 2 7 1 4 1009.5 - 0.0
30/03:00pm 35.4 33.5 7.5 18 15.7 SSE 7 11 4 6 1009.9 1008.9 0.0
30/02:30pm 35.1 32.9 8.0 19 15.3 NE 9 15 5 8 1010.3 - 0.0
30/02:00pm 34.6 32.9 9.8 22 14.4 ENE 9 15 5 8 1010.8 - 0.0
30/01:30pm 34.3 32.5 9.5 22 14.3 ESE 9 13 5 7 1011.3 - 0.0
30/01:00pm 33.8 32.4 12.2 27 12.9 E 11 17 6 9 1011.9 - 0.0
30/12:30pm 33.1 32.0 14.2 32 11.6 E 13 19 7 10 1012.4 - 0.0
30/12:00pm 32.1 31.7 15.1 35 10.6 E 11 22 6 12 1012.9 1012.0 0.0
30/11:30am 31.0 30.8 15.8 40 9.5 E 11 20 6 11 1013.5 - 0.0
30/11:00am 30.0 29.3 15.3 41 9.1 E 13 22 7 12 1014.3 - 0.0
30/10:30am 29.6 29.3 16.4 45 8.3 ENE 13 19 7 10 1014.7 - 0.0
30/10:00am 28.0 28.1 17.5 52 6.7 E 13 20 7 11 1015.1 - 0.0
30/09:30am 27.8 28.1 17.9 54 6.3 ENE 13 19 7 10 1015.3 - 0.0
30/09:00am 25.8 25.8 17.2 59 5.4 ENE 13 17 7 9 1015.5 1014.5 0.0
30/08:30am 25.8 25.8 18.2 63 4.8 E 15 20 8 11 1015.4 - 0.0
30/08:00am 24.8 24.0 18.5 68 4.0 E 20 24 11 13 1015.2 - 0.0
30/07:30am 24.3 23.7 18.9 72 3.5 E 20 26 11 14 1014.7 - 0.0
30/07:00am 23.4 23.2 19.3 78 2.6 E 19 22 10 12 1014.5 - 0.0
30/06:30am 22.6 22.2 18.8 79 2.4 E 19 26 10 14 1014.3 - 0.0
30/06:00am 22.4 21.0 18.0 76 2.8 E 22 28 12 15 1013.5 1012.6 0.0
30/05:30am 22.8 21.6 17.0 70 3.6 ESE 19 22 10 12 1013.1 - 0.0
30/05:00am 22.9 21.6 16.9 69 3.7 ESE 19 22 10 12 1012.7 - 0.0
30/04:30am 24.0 24.9 16.0 61 4.9 ESE 6 13 3 7 1012.6 - 0.0
30/04:00am 24.7 22.6 15.1 55 5.8 SE 20 24 11 13 1012.6 - 0.0
30/03:30am 25.5 23.3 14.3 50 6.7 SW 19 24 10 13 1012.4 - 0.0
30/03:00am 24.8 24.7 14.9 54 6.0 E 9 15 5 8 1012.8 1011.9 0.0
30/02:30am 24.5 21.2 16.0 59 5.2 N 28 41 15 22 1013.0 - 0.0
30/02:00am 25.9 22.5 14.7 50 6.8 WNW 26 41 14 22 1013.5 - 0.0
30/01:30am 24.3 25.0 18.0 68 4.0 ESE 11 15 6 8 1013.4 - 0.0
30/01:00am 25.7 26.2 17.4 60 5.2 ENE 11 15 6 8 1012.7 - 0.0
30/12:30am 27.9 28.6 16.2 49 7.3 W 7 9 4 5 1013.0 - 0.0
30/12:00am 26.8 25.6 17.6 57 5.8 WSW 20 26 11 14 1012.8 1011.9 0.0
 
Date/Time
EST
Temp
°C
App
Temp
°C
Dew
Point
Rel
Hum
%
Delta-T
°C
Wind Press
QNH
hPa
Press
MSL
hPa
Rain
since 9 am
mm
Dir
 
Spd
km/h
Gust
km/h
Spd
kts
Gust
kts
29/11:30pm 25.4 26.2 18.1 64 4.6 E 11 13 6 7 1012.2 - 0.0
29/11:00pm 27.3 28.6 17.5 55 6.2 NNE 7 13 4 7 1012.1 - 0.0
29/10:30pm 26.3 27.2 16.5 54 6.1 ENE 7 9 4 5 1012.3 - 0.0
29/10:00pm 27.7 26.7 14.7 45 7.9 NE 13 19 7 10 1012.0 - 0.0
29/09:30pm 27.7 26.5 14.0 43 8.2 NE 13 17 7 9 1012.0 - 0.0
29/09:00pm 26.5 25.7 16.1 52 6.4 E 15 19 8 10 1011.9 1011.0 0.0
29/08:30pm 27.7 30.4 17.8 54 6.3 CALM 0 0 0 0 1011.4 - 0.0
29/08:00pm 28.4 30.8 17.0 50 7.2 CALM 0 0 0 0 1011.2 - 0.0
29/07:30pm 30.0 31.2 13.7 37 9.8 CALM 0 0 0 0 1011.1 - 0.0
29/07:00pm 30.1 30.5 13.8 37 9.9 NNE 4 7 2 4 1010.9 - 0.0
29/06:30pm 32.7 31.6 11.8 28 12.4 N 9 13 5 7 1010.7 - 0.0
29/06:00pm 33.0 32.0 10.9 26 13.0 NNE 7 9 4 5 1010.6 1009.6 0.0
29/05:30pm 35.0 33.7 10.1 22 14.5 N 7 9 4 5 1010.3 - 0.0
29/05:00pm 35.8 33.6 9.3 20 15.3 N 11 15 6 8 1010.2 - 0.0
29/04:30pm 35.9 33.7 7.9 18 15.9 N 9 13 5 7 1010.1 - 0.0
29/04:00pm 35.8 33.8 8.6 19 15.6 NNE 9 15 5 8 1010.2 - 0.0
29/03:30pm 35.9 33.3 9.4 20 15.4 N 13 20 7 11 1010.3 - 0.0
29/03:00pm 35.7 33.3 6.9 17 16.1 N 9 13 5 7 1010.6 1009.6 0.0
29/02:30pm 35.5 33.6 9.1 20 15.2 E 9 13 5 7 1011.0 - 0.0
29/02:00pm 34.8 32.2 7.8 19 15.2 E 11 17 6 9 1011.5 - 0.0
29/01:30pm 34.7 33.4 9.2 21 14.7 SE 6 15 3 8 1011.9 - 0.0
29/01:00pm 34.6 32.5 8.4 20 14.9 E 9 19 5 10 1012.3 - 0.0
29/12:30pm 34.0 31.3 5.5 17 15.4 ENE 9 17 5 9 1012.8 - 0.0
29/12:00pm 33.5 30.7 5.1 17 15.2 E 9 15 5 8 1013.3 1012.4 0.0
29/11:30am 33.6 30.7 8.3 21 14.3 SE 13 22 7 12 1014.0 - 0.0
29/11:00am 32.2 27.7 4.1 17 14.7 ESE 17 26 9 14 1014.4 - 0.0
29/10:30am 31.6 28.6 7.9 23 13.2 SE 13 26 7 14 1014.7 - 0.0
29/10:00am 31.4 27.8 8.4 24 12.9 ESE 17 24 9 13 1015.3 - 0.0
29/09:30am 29.9 26.0 7.2 24 12.3 SE 17 24 9 13 1015.5 - 0.0
29/09:00am 29.2 24.9 7.2 25 11.9 SE 19 26 10 14 1015.7 1014.7 31.2
29/08:30am 28.7 24.4 7.9 27 11.4 SE 20 28 11 15 1015.7 - 31.2
29/08:00am 27.6 22.3 6.9 27 11.1 SE 24 30 13 16 1015.7 - 31.2
29/07:30am 26.6 22.8 9.0 33 9.7 SE 19 22 10 12 1015.5 - 31.2
29/07:00am 25.8 22.5 9.6 36 9.0 SE 17 24 9 13 1015.0 - 31.2
29/06:30am 24.2 22.3 13.1 50 6.5 SSE 15 20 8 11 1014.5 - 31.2
29/06:00am 23.1 20.9 13.3 54 5.7 SSE 17 22 9 12 1013.9 1012.9 31.2
29/05:30am 21.8 21.4 15.2 66 4.0 S 11 13 6 7 1013.4 - 31.2
29/05:00am 22.1 21.8 15.5 66 4.0 S 11 15 6 8 1013.1 - 31.2
29/04:30am 22.2 20.9 15.8 67 3.9 SSE 17 20 9 11 1012.6 - 31.2
29/04:00am 22.4 21.6 16.0 67 3.9 SSE 15 19 8 10 1012.3 - 31.2
29/03:30am 22.2 21.8 17.1 73 3.2 S 15 17 8 9 1012.3 - 31.2
29/03:00am 22.6 23.2 17.7 74 3.1 S 11 13 6 7 1012.1 1011.2 31.2
29/02:30am 23.4 24.0 16.7 66 4.1 WSW 9 11 5 6 1012.2 - 31.2
29/02:00am 24.6 24.2 16.3 60 5.1 NW 13 17 7 9 1012.0 - 31.2
29/01:30am 24.2 25.3 17.0 64 4.5 ENE 7 9 4 5 1011.5 - 31.2
29/01:00am 24.7 23.9 16.2 59 5.2 ENE 15 17 8 9 1011.6 - 31.2
29/12:30am 25.3 24.5 17.0 60 5.2 ENE 17 22 9 12 1012.1 - 31.2
29/12:00am 25.9 22.9 15.9 54 6.2 NE 26 35 14 19 1012.0 1011.1 31.2
 
Date/Time
EST
Temp
°C
App
Temp
°C
Dew
Point
Rel
Hum
%
Delta-T
°C
Wind Press
QNH
hPa
Press
MSL
hPa
Rain
since 9 am
mm
Dir
 
Spd
km/h
Gust
km/h
Spd
kts
Gust
kts
28/11:30pm 26.1 25.4 16.4 55 6.0 ENE 15 20 8 11 1012.2 - 31.2
28/11:00pm 25.6 25.7 16.4 56 5.7 E 11 15 6 8 1012.0 - 31.2

Other Formats:

Comma delimited format used in spreadsheet applications
http://www.bom.gov.au/fwo/IDQ60801/IDQ60801.94363.axf

JavaScript Object Notation format (JSON) in row-major order
http://www.bom.gov.au/fwo/IDQ60801/IDQ60801.94363.json